»·PEaware :: N448RA KSBD-KBFL

N448RA :: KSBD-KBFL

FLIGHT INFORMATION

Flight Status: Arrived
Operator: Privately registered:
United States
More flights under this callsign
Pilot: Scott M. (16181)
Aircraft: Unknown
(KODI)
More flights by this aircraft type
Origin: KSBD San Bernardino Intl
United States
Destination: KBFL Meadows
United States
More flights between these airports :: More routes between these airports
Route:
File this flight plan on PilotEdge
Remarks:
Altitude:
(Current/Filed)
8,500ft
Speed:
(Current/Filed)
125kts
Departed: 04-Oct-17 06:31 PM
Arrived: 04-Oct-17 07:39 PM
Distance/Time
Traveled:
120nm/1:08
Distance/Time
To Go:
Arrived

Flight Plot

Page will automatically refresh every two minutes.


Map Options




Map Legend


Flown Route
Filed Route
Departure Airport
Arrival Airport
Navaid (VOR, NDB)
Fix

Horizontal Profiles

Position Reports

Time Latitude Longitude Heading Altitude Ground
Speed
04-Oct-17 18:23 34.102432 -117.224706 93 1162ft 0kts
04-Oct-17 18:24 34.102432 -117.224706 93 1162ft 0kts
04-Oct-17 18:25 34.102432 -117.224706 93 1162ft 0kts
04-Oct-17 18:26 34.102432 -117.224707 93 1162ft 0kts
04-Oct-17 18:27 34.102432 -117.224707 93 1162ft 0kts
04-Oct-17 18:28 34.102432 -117.224707 93 1162ft 0kts
04-Oct-17 18:29 34.102342 -117.224954 167 1162ft 2kts
04-Oct-17 18:30 34.099588 -117.226353 61 1162ft 9kts
04-Oct-17 18:31 34.101122 -117.221447 69 1162ft 19kts
04-Oct-17 18:32 34.100840 -117.219757 159 1162ft 0kts
04-Oct-17 18:33 34.100840 -117.219757 159 1162ft 0kts
04-Oct-17 18:34 34.100840 -117.219757 159 1162ft 0kts
04-Oct-17 18:35 34.099619 -117.220474 243 1162ft 58kts
04-Oct-17 18:36 34.088855 -117.255458 254 2365ft 156kts
04-Oct-17 18:37 34.088938 -117.299012 269 3549ft 163kts
04-Oct-17 18:38 34.106534 -117.324193 351 4636ft 124kts
04-Oct-17 18:39 34.137662 -117.330095 354 5916ft 137kts
04-Oct-17 18:40 34.170298 -117.335082 355 7147ft 134kts
04-Oct-17 18:41 34.201849 -117.339385 355 8362ft 131kts
04-Oct-17 18:42 34.235289 -117.343835 355 8500ft 138kts
04-Oct-17 18:43 34.269466 -117.348209 356 8500ft 135kts
04-Oct-17 18:44 34.304305 -117.352671 356 8500ft 134kts
04-Oct-17 18:45 34.338040 -117.356989 355 8499ft 135kts
04-Oct-17 18:46 34.371307 -117.361282 355 8500ft 134kts
04-Oct-17 18:47 34.405168 -117.365587 355 8416ft 138kts
04-Oct-17 18:48 34.440094 -117.370067 356 8415ft 135kts
04-Oct-17 18:49 34.475084 -117.374555 354 8419ft 137kts
04-Oct-17 18:50 34.510094 -117.379057 354 8415ft 137kts
04-Oct-17 18:51 34.546007 -117.383659 355 8416ft 134kts
04-Oct-17 18:52 34.580149 -117.388026 355 8417ft 134kts
04-Oct-17 18:53 34.599371 -117.414827 289 8419ft 141kts
04-Oct-17 18:54 34.609551 -117.457720 290 8418ft 148kts
04-Oct-17 18:55 34.619361 -117.500182 288 8417ft 149kts
04-Oct-17 18:56 34.629421 -117.544049 287 8414ft 146kts
04-Oct-17 18:57 34.639003 -117.585650 288 8416ft 143kts
04-Oct-17 18:58 34.648865 -117.629047 288 8417ft 145kts
04-Oct-17 18:59 34.658027 -117.669194 288 8415ft 145kts
04-Oct-17 19:00 34.668152 -117.713957 287 8416ft 145kts
04-Oct-17 19:01 34.678535 -117.759763 286 8416ft 146kts
04-Oct-17 19:02 34.688600 -117.804111 288 8415ft 145kts
04-Oct-17 19:03 34.698931 -117.849791 287 8416ft 145kts
04-Oct-17 19:04 34.708842 -117.893780 286 8416ft 146kts
04-Oct-17 19:05 34.718443 -117.936418 288 8416ft 145kts
04-Oct-17 19:06 34.727959 -117.978910 287 8417ft 145kts
04-Oct-17 19:07 34.736990 -118.019022 287 8416ft 146kts
04-Oct-17 19:08 34.746236 -118.060563 288 8415ft 146kts
04-Oct-17 19:09 34.755366 -118.101245 288 8416ft 145kts
04-Oct-17 19:10 34.764497 -118.142061 288 8416ft 145kts
04-Oct-17 19:11 34.773436 -118.182238 288 8416ft 145kts
04-Oct-17 19:12 34.782782 -118.224460 286 8417ft 145kts
04-Oct-17 19:13 34.791847 -118.265220 287 8416ft 146kts
04-Oct-17 19:14 34.812495 -118.296903 317 8416ft 142kts
04-Oct-17 19:15 34.836221 -118.326122 317 8415ft 142kts
04-Oct-17 19:16 34.859036 -118.353883 317 8415ft 142kts
04-Oct-17 19:17 34.882454 -118.382416 319 8416ft 142kts
04-Oct-17 19:18 34.906108 -118.411050 318 8416ft 142kts
04-Oct-17 19:19 34.931087 -118.441342 318 8416ft 142kts
04-Oct-17 19:20 34.955902 -118.471354 318 8436ft 141kts
04-Oct-17 19:21 34.979881 -118.500547 318 8436ft 141kts
04-Oct-17 19:22 35.004227 -118.530166 317 8435ft 141kts
04-Oct-17 19:23 35.029613 -118.561079 318 8435ft 142kts
04-Oct-17 19:24 35.055792 -118.592867 317 8561ft 156kts
04-Oct-17 19:25 35.082857 -118.626004 318 8415ft 139kts
04-Oct-17 19:26 35.103867 -118.651705 318 7888ft 144kts
04-Oct-17 19:27 35.128040 -118.679770 319 7098ft 138kts
04-Oct-17 19:28 35.154466 -118.708908 321 6435ft 136kts
04-Oct-17 19:29 35.181196 -118.735651 324 6435ft 131kts
04-Oct-17 19:30 35.204436 -118.768665 311 6113ft 144kts
04-Oct-17 19:31 35.228637 -118.802424 315 5365ft 135kts
04-Oct-17 19:32 35.251377 -118.831564 317 4614ft 125kts
04-Oct-17 19:33 35.272194 -118.857681 317 4423ft 96kts
04-Oct-17 19:34 35.290230 -118.879834 318 4448ft 111kts
04-Oct-17 19:35 35.311387 -118.905846 318 4437ft 121kts
04-Oct-17 19:36 35.333160 -118.932662 318 4218ft 125kts
04-Oct-17 19:37 35.354135 -118.958621 318 3439ft 121kts
04-Oct-17 19:38 35.372138 -118.980972 318 2654ft 96kts
04-Oct-17 19:39 35.389178 -119.002022 318 1831ft 93kts
04-Oct-17 19:40 35.403954 -119.020371 320 1330ft 79kts
04-Oct-17 19:41 35.418627 -119.037801 319 925ft 81kts
04-Oct-17 19:42 35.433805 -119.056175 321 519ft 72kts
04-Oct-17 19:43 35.438155 -119.059975 69 511ft 0kts
04-Oct-17 19:44 35.437176 -119.057974 136 511ft 22kts
04-Oct-17 19:45 35.432871 -119.051872 39 511ft 14kts
04-Oct-17 19:46 35.433259 -119.051655 228 511ft 0kts

Navigation Log

Ident Type
1. KSBD Airport
2. KBFL Airport